North River, New York
Current Conditions -  °F | °C
As of 4:10 PM on Wednesday 17 Dec 2014 (Local Time) from KGFL Reporting Station
Overcast Overcast  
Wind Chill: 37°   Ceiling: 5500
Heat Index: 40°   Visibility: 10mi
Dew Point: 37°   Wind: 5mph
Humidity: 89%   Direction: 240°WSW
Pressure: 29.77"   Gusts: NA
Location:  43.74°N, 74.05°W
Report Text: KGFL 172110Z AUTO 24004KT 10SM SCT042 OVC055 04/03 A2977 RMK AO2 RAE09 P0000 T00440028
Loading
Personal Weather Stations






























Interactive Weather Map New forecast layout! Learn more

10-Day Weather Forecast

Advertisements
Track Severe Weather on mobile